YBZA weather

Breeza Airport
New South Wales, Australia

Public forecast

Using degrees Celsius for public forecast. Weather courtesy of forecast.io.

Closest aviation weather report (METAR) to Breeza Airport

Closest report is Tamworth Airport, 22.0 nm (40.7 km) NE. Retrieved 2019/10/20 22:30 UTC (0 seconds ago):

YSTW 202230Z AUTO 06004KT 9999 // NCD 19/02 Q1026 RF000/0000

Closest aviation forecast (TAF) to Breeza Airport

Closest forecast is Tamworth Airport, 22.0 nm (40.7 km) NE. Retrieved 2019/10/20 18:36 UTC (4 hours ago):

TAF TAF YSTW 201646Z 2018/2112 15010KT CAVOK FM210200 18008KT CAVOK FM210900 12010KT CAVOK